Tiempo atmosférico en la estación meteorológica de Binissalem, Illes Balears (105 m.)



Fecha
DESCASC
Temp. máxima en grados centígrados (hora)
DESCASC
Temp. mínima en grados centígrados (hora)
DESCASC
Temp. media en grados centígrados
DESCASC
Racha de viento máxima en m/sg (hora)
DESCASC
Velocidad máxima media en intervalos de 10 minutos(hora)
DESCASC
Precipitaciones diarias en mm
DESCASC
Precipitaciones de 00:00 a 06:00 en mm
DESCASC
Precipitaciones de 06:00 a 12:00 en mm
DESCASC
Precipitaciones de 12:00 a 18:00 en mm
DESCASC
Precipitaciones de 18:00 a 24:00 en mm
DESCASC
28-02-2021 17.2 (14:30) 2.7 (06:00) 10 7.78 (14:20) 4.72 (16:50) 0 0 0 0 0
27-02-2021 17.9 (12:30) 0.9 (07:20) 9.4 7.78 (13:00) 4.72 (12:50) 0 0 0 0 0
26-02-2021 18 (14:00) 2.4 (05:40) 10.2 5.83 (11:50) 3.61 (11:50) 0 0 0 0 0
25-02-2021 18.8 (14:50) 3.3 (00:00) 11 6.11 (15:50) 3.61 (17:00) 0 0 0 0 0
24-02-2021 18.6 (16:20) 4.8 (00:00) 11.7 8.33 (15:10) 4.44 (13:20) 0 0 0 0 0
23-02-2021 18.5 (14:30) 4.7 (00:00) 11.6 8.06 (14:30) 5.28 (15:50) 0 0 0 0 0
22-02-2021 16.4 (00:10) 6.8 (00:00) 11.6 7.5 (00:20) 4.72 (00:20) 1.2 0 0.2 1 0
21-02-2021 18.7 (12:20) 8 (00:00) 13.4 8.33 (12:30) 5 (14:00) 0 0 0 0 0
20-02-2021 20.7 (14:20) 3.1 (00:00) 11.9 5.56 (13:30) 3.61 (16:40) 0 0 0 0 0
19-02-2021 20 (15:20) 3.5 (00:00) 11.8 5.28 (16:30) 3.33 (16:40) 0 0 0 0 0
18-02-2021 20.9 (14:20) 6.1 (00:00) 13.5 5 (14:50) 3.33 (17:30) 0 0 0 0 0
17-02-2021 17.7 (16:00) 1.7 (00:00) 9.7 8.06 (13:30) 3.33 (14:10) 0 0 0 0 0
16-02-2021 14.4 (14:00) 1.3 (00:00) 7.8 7.5 (14:30) 5 (16:20) 0 0 0 0 0
15-02-2021 12.1 (13:30) 5.1 (00:00) 8.6 4.44 (17:00) 2.78 (17:30) 0 0 0 0 0
14-02-2021 11.5 (13:50) 7.2 (00:00) 9.3 7.78 (12:00) 4.44 (12:00) 0.2 0.2 0 0 0
13-02-2021 16.8 (15:50) 7.9 (00:00) 12.3 6.94 (17:40) 4.44 (17:20) 0.2 0.2 0 0 0
12-02-2021 17 (16:20) 7.4 (00:00) 12.2 13.33 (16:30) 8.06 (16:30) 2.2 0 0 0 2.2
11-02-2021 18.6 (14:10) 3.7 (00:00) 11.2 7.78 (16:10) 5.83 (16:10) 0 0 0 0 0
10-02-2021 -- (--) -- (--) -- -- (--) -- (--) -- -- -- 0 0
09-02-2021 16.1 (12:40) 10.3 (00:00) 13.2 15.83 (13:00) 10.28 (13:00) 0.8 0 0 0 0.8
08-02-2021 15.2 (10:40) 4.7 (00:00) 9.9 15.83 (12:20) 10.28 (12:10) 1.2 0 0 1.2 0
07-02-2021 14.3 (15:30) 5.8 (00:00) 10.1 10.56 (12:00) 5.83 (12:00) 0 0 0 0 0
06-02-2021 21.4 (02:00) 11 (00:00) 16.2 10 (04:40) 6.67 (16:20) 0 0 0 0 0
05-02-2021 23.5 (14:50) 6.6 (00:00) 15 6.94 (13:50) 4.72 (15:40) 0 0 0 0 0
04-02-2021 20.1 (14:40) 8.4 (00:00) 14.3 4.72 (17:00) 3.33 (17:10) 0 0 0 0 0
03-02-2021 17.8 (13:00) 8.9 (00:00) 13.3 10.28 (11:40) 7.22 (13:40) 0 0 0 0 0

Gráficas

Temp. máximas Temp. mínimas Temp. medias Precipitaciones Rachas de viento máximas Velocidades máximas media en intervalos de 10 minutos

Datos horarios

Fecha y hora oficial Temperatura (ºC) Velocidad del viento (km/h) Dirección del viento Racha (km/h) Dirección de racha Precipitación (mm) Presión (hPa) Tendencia (hPa) Humedad (%)
2021-03-04 23:00:00 8.1 6 Noroeste 9 Noroeste 0 -- -- 92
2021-03-04 22:00:00 8.1 6 Norte 8 Norte 0 -- -- 90
2021-03-04 21:00:00 9.1 3 Norte 9 Norte 0 -- -- 87
2021-03-04 20:00:00 10.6 5 Norte 12 Nordeste 0 -- -- 83
2021-03-04 19:00:00 12.2 9 Nordeste 18 Nordeste 0 -- -- 76
2021-03-04 18:00:00 14.1 16 Nordeste 23 Nordeste 0 -- -- 69
2021-03-04 17:00:00 15.1 14 Nordeste 24 Nordeste 0 -- -- 72
2021-03-04 16:00:00 15.1 12 Nordeste 23 Nordeste 0 -- -- 72
2021-03-04 15:00:00 15.2 12 Este 22 Este 0 -- -- 68
2021-03-04 14:00:00 16.2 10 Este 22 Este 0 -- -- 69
2021-03-04 13:00:00 14.7 8 Nordeste 17 Este 0 -- -- 75
2021-03-04 12:00:00 14.9 8 Nordeste 16 Nordeste 0 -- -- 77
2021-03-04 11:00:00 14.8 12 Nordeste 20 Nordeste 0 -- -- 76
2021-03-04 10:00:00 13.8 9 Nordeste 17 Nordeste 0 -- -- 87
2021-03-04 09:00:00 12.5 7 Nordeste 12 Nordeste 0 -- -- 92
2021-03-04 08:00:00 11.2 7 Norte 12 Norte 0 -- -- 94
2021-03-04 07:00:00 11 8 Norte 13 Nordeste 0 -- -- 94
2021-03-04 06:00:00 11.1 8 Norte 13 Noroeste 0 -- -- 94
2021-03-04 05:00:00 10.4 8 Norte 10 Norte 0 -- -- 94
2021-03-04 04:00:00 10.5 6 Norte 12 Norte 0 -- -- 93
2021-03-04 03:00:00 10.6 5 Norte 14 Norte 0 -- -- 93
2021-03-04 02:00:00 10.9 9 Nordeste 14 Nordeste 0 -- -- 92
2021-03-04 01:00:00 10.9 9 Norte 16 Norte 0 -- -- 91
2021-03-04 00:00:00 10.9 10 Nordeste 17 Nordeste 0 -- -- 92
2021-03-03 23:00:00 10.8 8 Nordeste 15 Norte 0 -- -- 92
2021-03-03 22:00:00 10.2 9 Norte 13 Norte 0 -- -- 92
2021-03-03 21:00:00 10.4 6 Nordeste 9 Nordeste 0 -- -- 90
2021-03-03 20:00:00 11.3 5 Nordeste 15 Nordeste 0 -- -- 86
2021-03-03 19:00:00 12.5 8 Nordeste 17 Este 0 -- -- 78
2021-03-03 18:00:00 15 11 Este 26 Este 0 -- -- 67
2021-03-03 17:00:00 16 18 Este 28 Este 0 -- -- 63
2021-03-03 16:00:00 17.5 14 Este 30 Este 0 -- -- 57
2021-03-03 15:00:00 18.4 17 Este 32 Nordeste 0 -- -- 56
2021-03-03 14:00:00 17.2 14 Nordeste 30 Nordeste 0 -- -- 65
2021-03-03 13:00:00 17.4 17 Nordeste 32 Este 0 -- -- 65
2021-03-03 12:00:00 16.8 16 Nordeste 29 Nordeste 0 -- -- 70
2021-03-03 11:00:00 15.9 18 Nordeste 27 Nordeste 0 -- -- 74
2021-03-03 10:00:00 14.2 16 Nordeste 23 Nordeste 0 -- -- 83
2021-03-03 09:00:00 13.2 12 Nordeste 18 Nordeste 0 -- -- 87
2021-03-03 08:00:00 12.2 10 Nordeste 18 Nordeste 0 -- -- 90
2021-03-03 07:00:00 11.9 8 Nordeste 15 Nordeste 0 -- -- 90
2021-03-03 06:00:00 12.2 10 Nordeste 21 Nordeste 0 -- -- 90
2021-03-03 05:00:00 12.4 12 Nordeste 19 Nordeste 0 -- -- 90
2021-03-03 04:00:00 12.4 11 Nordeste 20 Nordeste 0 -- -- 89
2021-03-03 03:00:00 12.6 12 Nordeste 19 Norte 0 -- -- 89
2021-03-03 02:00:00 12.7 12 Nordeste 23 Nordeste 0 -- -- 90
2021-03-03 01:00:00 12.8 12 Nordeste 21 Nordeste 0 -- -- 90
2021-03-03 00:00:00 12.9 13 Nordeste 21 Nordeste 0 -- -- 90
2021-03-02 23:00:00 12.7 14 Nordeste 22 Nordeste 0 -- -- 91
2021-03-02 22:00:00 12.8 15 Nordeste 23 Nordeste 0 -- -- 92
2021-03-02 21:00:00 12.9 13 Nordeste 20 Nordeste 0 -- -- 92
2021-03-02 20:00:00 12.9 13 Nordeste 21 Nordeste 0 -- -- 90
2021-03-02 19:00:00 13.4 13 Nordeste 19 Nordeste 0 -- -- 89
2021-03-02 18:00:00 14.1 11 Nordeste 24 Nordeste 0 -- -- 85
2021-03-02 17:00:00 14.5 16 Nordeste 24 Nordeste 0 -- -- 83
2021-03-02 16:00:00 15 14 Nordeste 22 Nordeste 0 -- -- 82
2021-03-02 15:00:00 15.6 12 Nordeste 24 Nordeste 0 -- -- 80
2021-03-02 14:00:00 15.4 13 Nordeste 25 Nordeste 0 -- -- 81
2021-03-02 13:00:00 15.2 16 Nordeste 27 Nordeste 0 -- -- 82
2021-03-02 12:00:00 14.8 16 Nordeste 29 Nordeste 0 -- -- 85
2021-03-02 11:00:00 14.3 16 Nordeste 25 Nordeste 0 -- -- 87
2021-03-02 10:00:00 14 12 Nordeste 19 Norte 0 -- -- 87
2021-03-02 09:00:00 13.5 11 Nordeste 23 Nordeste 0 -- -- 89
2021-03-02 08:00:00 13 -- -- -- -- 0 -- -- 90
2021-03-02 07:00:00 13 16 Nordeste 25 Nordeste 0 -- -- 89
2021-03-02 06:00:00 12.9 17 Nordeste 27 Nordeste 0 -- -- 89
2021-03-02 05:00:00 13 18 Nordeste 30 Nordeste 0 -- -- 88
2021-03-02 04:00:00 12.8 17 Nordeste 32 Nordeste 0 -- -- 88
2021-03-02 03:00:00 12.8 17 Nordeste 30 Nordeste 0 -- -- 88
2021-03-02 02:00:00 12.9 10 Nordeste 31 Nordeste 0 -- -- 89
2021-03-02 01:00:00 12.8 21 Nordeste 38 Nordeste 0 -- -- 89
2021-03-02 00:00:00 12.9 20 Nordeste 35 Nordeste 0 -- -- 88
2021-03-01 23:00:00 12.8 17 Nordeste 39 Nordeste 0 -- -- 86
2021-03-01 22:00:00 12.9 18 Nordeste 31 Nordeste 0 -- -- 84
2021-03-01 21:00:00 13.1 19 Nordeste 32 Nordeste 0 -- -- 81
2021-03-01 20:00:00 13.2 17 Nordeste 27 Nordeste 0 -- -- 81
2021-03-01 19:00:00 13.3 17 Nordeste 29 Nordeste 0 -- -- 80
2021-03-01 18:00:00 13.7 17 Nordeste 32 Nordeste 0 -- -- 78
2021-03-01 17:00:00 14.2 19 Nordeste 32 Nordeste 0 -- -- 77
2021-03-01 16:00:00 14.7 19 Nordeste 28 Nordeste 0 -- -- 75
2021-03-01 15:00:00 15.5 14 Nordeste 26 Este 0 -- -- 68
2021-03-01 14:00:00 15.6 15 Este 26 Este 0 -- -- 67
2021-03-01 13:00:00 16.1 14 Este 30 Este 0 -- -- 65
2021-03-01 12:00:00 15.6 15 Nordeste 32 Nordeste 0 -- -- 68
2021-03-01 11:00:00 13.9 17 Nordeste 32 Nordeste 0 -- -- 73
2021-03-01 10:00:00 13.5 21 Nordeste 33 Nordeste 0 -- -- 75
2021-03-01 09:00:00 12.9 18 Nordeste 30 Nordeste 0 -- -- 75
2021-03-01 08:00:00 12 15 Nordeste 24 Nordeste 0 -- -- 80
2021-03-01 07:00:00 12 15 Nordeste 22 Nordeste 0 -- -- 77
2021-03-01 06:00:00 11.8 12 Nordeste 18 Norte 0 -- -- 76
2021-03-01 05:00:00 11.8 10 Nordeste 17 Nordeste 0 -- -- 75
2021-03-01 04:00:00 11.8 7 Nordeste 17 Nordeste 0 -- -- 74
2021-03-01 03:00:00 12 10 Nordeste 17 Este 0 -- -- 74
2021-03-01 02:00:00 12.2 9 Nordeste 17 Nordeste 0 -- -- 73
2021-03-01 01:00:00 12.3 10 Nordeste 18 Nordeste 0 -- -- 74
2021-03-01 00:00:00 12.2 11 Nordeste 21 Este 0 -- -- 76
2021-02-28 23:00:00 12.1 11 Nordeste 20 Nordeste 0 -- -- 79
2021-02-28 22:00:00 11.9 12 Norte 19 Nordeste 0 -- -- 77
2021-02-28 21:00:00 11 10 Nordeste 17 Nordeste 0 -- -- 82
2021-02-28 20:00:00 11.4 7 Nordeste 15 Nordeste 0 -- -- 80
2021-02-28 19:00:00 11.9 9 Nordeste 21 Nordeste 0 -- -- 78
2021-02-28 18:00:00 13.6 15 Nordeste 27 Nordeste 0 -- -- 73
2021-02-28 17:00:00 14.6 15 Nordeste 26 Nordeste 0 -- -- 70
2021-02-28 16:00:00 15.9 15 Nordeste 26 Este 0 -- -- 66
2021-02-28 15:00:00 15.8 12 Nordeste 28 Este 0 -- -- 63
2021-02-28 14:00:00 16.2 13 Nordeste 25 Nordeste 0 -- -- 63
2021-02-28 13:00:00 15.4 15 Nordeste 25 Nordeste 0 -- -- 66
2021-02-28 12:00:00 15.5 12 Nordeste 23 Nordeste 0 -- -- 66
2021-02-28 11:00:00 14.3 15 Nordeste 24 Nordeste 0 -- -- 71
2021-02-28 10:00:00 13.3 9 Este 17 Este 0 -- -- 91
2021-02-28 09:00:00 9.7 0 Calma 6 Norte 0 -- -- 96
2021-02-28 08:00:00 3.2 5 Noroeste 10 Sur 0 -- -- 97
2021-02-28 07:00:00 2.9 4 Noroeste 7 Oeste 0 -- -- 96
2021-02-28 06:00:00 2.7 3 Sudoeste 6 Noroeste 0 -- -- 96
2021-02-28 05:00:00 3.5 7 Noroeste 9 Noroeste 0 -- -- 96
2021-02-28 04:00:00 4.6 4 Noroeste 6 Noroeste 0 -- -- 97
2021-02-28 03:00:00 3.4 0 Calma 4 Noroeste 0 -- -- 93
2021-02-28 02:00:00 4.3 0 Calma 3 Norte 0 -- -- 94
2021-02-28 01:00:00 5.1 3 Sudeste 5 Nordeste 0 -- -- 93
2021-02-28 00:00:00 6.3 3 Nordeste 5 Norte 0 -- -- 90
2021-02-27 23:00:00 7.4 5 Norte 8 Norte 0 -- -- 85
2021-02-27 22:00:00 8.9 6 Norte 10 Norte 0 -- -- 84
2021-02-27 21:00:00 9.3 7 Nordeste 12 Norte 0 -- -- 82
2021-02-27 20:00:00 10 9 Nordeste 13 Norte 0 -- -- 79
2021-02-27 19:00:00 11.2 9 Nordeste 17 Nordeste 0 -- -- 74
2021-02-27 18:00:00 13.3 10 Nordeste 20 Este 0 -- -- 68
2021-02-27 17:00:00 14.5 13 Nordeste 24 Este 0 -- -- 63
2021-02-27 16:00:00 17 13 Este 24 Nordeste 0 -- -- 59
2021-02-27 15:00:00 17.2 15 Este 28 Este 0 -- -- 60
2021-02-27 14:00:00 16.3 13 Este 28 Este 0 -- -- 67
2021-02-27 13:00:00 17.5 16 Este 28 Este 0 -- -- 64
2021-02-27 12:00:00 16.3 12 Este 23 Nordeste 0 -- -- 69
2021-02-27 11:00:00 15.2 10 Este 18 Este 0 -- -- 88
2021-02-27 10:00:00 10.1 5 Sur 8 Sur 0 -- -- 96
2021-02-27 09:00:00 6.5 0 Calma 3 Sudeste 0 -- -- 97
2021-02-27 08:00:00 2.1 0 Calma 7 Sudoeste 0 -- -- 97
2021-02-27 07:00:00 1.4 4 Oeste 6 Sudoeste 0 -- -- 96
2021-02-27 06:00:00 1.1 4 Sudoeste 6 Sudoeste 0 -- -- 97
2021-02-27 05:00:00 1.8 0 Calma 5 Oeste 0 -- -- 98
2021-02-27 04:00:00 2.6 3 Oeste 6 Sudoeste 0 -- -- 97
2021-02-27 03:00:00 2.7 2 Sur 3 Sur 0 -- -- 96
2021-02-27 02:00:00 3.6 2 Noroeste 5 Oeste 0 -- -- 96
2021-02-27 01:00:00 4.4 3 Oeste 4 Oeste 0 -- -- 95
2021-02-27 00:00:00 5.2 3 Noroeste 6 Noroeste 0 -- -- 95
2021-02-26 23:00:00 5.7 4 Oeste 7 Noroeste 0 -- -- 95
2021-02-26 22:00:00 6.3 6 Noroeste 8 Noroeste 0 -- -- 93
2021-02-26 21:00:00 7.3 0 Calma 2 Noroeste 0 -- -- 91
2021-02-26 20:00:00 9.1 0 Calma 12 Este 0 -- -- 87
2021-02-26 19:00:00 11.1 7 Este 14 Nordeste 0 -- -- 81
2021-02-26 18:00:00 14.2 9 Este 18 Este 0 -- -- 71
2021-02-26 17:00:00 16.5 10 Este 19 Este 0 -- -- 65
2021-02-26 16:00:00 17.7 9 Nordeste 16 Este 0 -- -- 59
2021-02-26 15:00:00 17.7 8 Este 18 Este 0 -- -- 57
2021-02-26 14:00:00 18 8 Este 17 Este 0 -- -- 59
2021-02-26 13:00:00 16.5 10 Nordeste 19 Este 0 -- -- 63
2021-02-26 12:00:00 15.4 12 Este 21 Este 0 -- -- 68
2021-02-26 11:00:00 14.1 9 Este 16 Este 0 -- -- 78
2021-02-26 10:00:00 11.2 3 Norte 6 Nordeste 0 -- -- 95
2021-02-26 09:00:00 8 0 Calma 3 Sudeste 0 -- -- 97
2021-02-26 08:00:00 6 0 Calma 5 Este 0 -- -- 97
2021-02-26 07:00:00 5.3 0 Calma 4 Sur 0 -- -- 97
2021-02-26 06:00:00 3.2 3 Sudoeste 4 Sudoeste 0 -- -- 98
2021-02-26 05:00:00 2.8 0 Calma 3 Sudoeste 0 -- -- 97
2021-02-26 04:00:00 3.4 0 Calma 4 Noroeste 0 -- -- 97
2021-02-26 03:00:00 4.3 0 Calma 4 Norte 0 -- -- 96
2021-02-26 02:00:00 5.5 3 Norte 8 Norte 0 -- -- 95
2021-02-26 01:00:00 5.4 7 Noroeste 8 Noroeste 0 -- -- 95
2021-02-26 00:00:00 6.2 4 Noroeste 6 Noroeste 0 -- -- 94
2021-02-25 23:00:00 6.9 6 Noroeste 8 Noroeste 0 -- -- 91
2021-02-25 22:00:00 8.5 4 Norte 8 Norte 0 -- -- 90
2021-02-25 21:00:00 8.8 5 Norte 6 Norte 0 -- -- 88
2021-02-25 20:00:00 10.4 4 Nordeste 10 Nordeste 0 -- -- 82
2021-02-25 19:00:00 11.7 5 Nordeste 14 Nordeste 0 -- -- 74
2021-02-25 18:00:00 14.6 10 Este 19 Nordeste 0 -- -- 68
2021-02-25 17:00:00 17.7 13 Este 21 Este 0 -- -- 61
2021-02-25 16:00:00 18.2 9 Este 22 Este 0 -- -- 59
2021-02-25 15:00:00 18.8 8 Nordeste 18 Este 0 -- -- 57
2021-02-25 14:00:00 17.5 8 Este 15 Este 0 -- -- 60
2021-02-25 13:00:00 16.9 6 Este 15 Este 0 -- -- 63
2021-02-25 12:00:00 16.3 3 Norte 13 Este 0 -- -- 66
2021-02-25 11:00:00 14.7 6 Sudeste 11 Sur 0 -- -- 73
2021-02-25 10:00:00 13.9 0 Calma 4 Sur 0 -- -- 92
2021-02-25 09:00:00 9.4 0 Calma 5 Sudoeste 0 -- -- 96
2021-02-25 08:00:00 3.9 4 Sudoeste 5 Sudoeste 0 -- -- 98
2021-02-25 07:00:00 3.6 0 Calma 5 Oeste 0 -- -- 96
2021-02-25 06:00:00 4 4 Sudoeste 5 Sudoeste 0 -- -- 97
2021-02-25 05:00:00 4.9 0 Calma 6 Oeste 0 -- -- 96
2021-02-25 04:00:00 6.3 5 Sudoeste 6 Oeste 0 -- -- 96
2021-02-25 03:00:00 6.2 0 Calma 8 Noroeste 0 -- -- 94
2021-02-25 02:00:00 7.4 0 Calma 6 Noroeste 0 -- -- 93
2021-02-25 01:00:00 8.7 4 Noroeste 8 Norte 0 -- -- 93
2021-02-25 00:00:00 9.3 4 Norte 8 Norte 0 -- -- 91
2021-02-24 23:00:00 9.7 5 Norte 9 Norte 0 -- -- 91
2021-02-24 22:00:00 9.9 5 Nordeste 8 Norte 0 -- -- 89
2021-02-24 21:00:00 10.2 6 Norte 8 Nordeste 0 -- -- 87
2021-02-24 20:00:00 10.4 5 Norte 8 Norte 0 -- -- 86
2021-02-24 19:00:00 12.4 3 Este 16 Sudeste 0 -- -- 74
2021-02-24 18:00:00 14.7 11 Sudeste 20 Este 0 -- -- 66
2021-02-24 17:00:00 16.9 13 Este 20 Este 0 -- -- 58
2021-02-24 16:00:00 17.9 12 Este 30 Este 0 -- -- 55
2021-02-24 15:00:00 18.5 9 Este 22 Este 0 -- -- 54
2021-02-24 14:00:00 18.5 9 Este 28 Sudeste 0 -- -- 53
2021-02-24 13:00:00 18.2 14 Este 28 Sudeste 0 -- -- 51
2021-02-24 12:00:00 16.4 9 Este 18 Este 0 -- -- 64
2021-02-24 11:00:00 15.8 7 Nordeste 19 Este 0 -- -- 72
2021-02-24 10:00:00 14.6 7 Nordeste 13 Nordeste 0 -- -- 86
2021-02-24 09:00:00 9.4 5 Norte 10 Este 0 -- -- 97
2021-02-24 08:00:00 5.6 5 Norte 9 Norte 0 -- -- 98
2021-02-24 07:00:00 5.9 3 Nordeste 7 Este 0 -- -- 95
2021-02-24 06:00:00 7 3 Nordeste 8 Norte 0 -- -- 95
2021-02-24 05:00:00 7.8 7 Norte 9 Norte 0 -- -- 95
2021-02-24 04:00:00 8.6 4 Nordeste 7 Norte 0 -- -- 93
2021-02-24 03:00:00 10.5 4 Norte 8 Este 0 -- -- 91
2021-02-24 02:00:00 12.5 5 Nordeste 10 Nordeste 0 -- -- 89
2021-02-24 01:00:00 13.4 5 Nordeste 12 Nordeste 0 -- -- 91
2021-02-24 00:00:00 13.2 7 Nordeste 16 Nordeste 0 -- -- 92
2021-02-23 23:00:00 13.8 11 Nordeste 19 Nordeste 0 -- -- 91
2021-02-23 22:00:00 13.9 11 Nordeste 20 Nordeste 0 -- -- 89
2021-02-23 21:00:00 14.1 14 Nordeste 19 Nordeste 0 -- -- 87
2021-02-23 20:00:00 14.1 10 Nordeste 17 Nordeste 0 -- -- 87
2021-02-23 19:00:00 13.9 11 Nordeste 20 Nordeste 0 -- -- 86
2021-02-23 18:00:00 15.2 12 Este 27 Nordeste 0 -- -- 82
2021-02-23 17:00:00 16.2 15 Nordeste 29 Nordeste 0 -- -- 81
2021-02-23 16:00:00 17.4 17 Nordeste 28 Nordeste 0 -- -- 77
2021-02-23 15:00:00 17.7 14 Este 29 Este 0 -- -- 76
2021-02-23 14:00:00 17.7 12 Nordeste 22 Nordeste 0 -- -- 76
2021-02-23 13:00:00 16.9 9 Nordeste 15 Norte 0 -- -- 80
2021-02-23 12:00:00 15.3 8 Nordeste 17 Nordeste 0 -- -- 86
2021-02-23 11:00:00 14.5 9 Nordeste 18 Nordeste 0 -- -- 94
2021-02-23 10:00:00 12.3 5 Nordeste 8 Nordeste 0 -- -- 98
2021-02-23 09:00:00 9.5 0 Calma 3 Sudeste 0 -- -- 97
2021-02-23 08:00:00 7.8 3 Norte 6 Noroeste 0 -- -- 97
2021-02-23 07:00:00 7.5 0 Calma 4 Sur 0 -- -- 97
2021-02-23 06:00:00 7.4 0 Calma 4 Oeste 0 -- -- 97
2021-02-23 05:00:00 6 0 Calma 4 Noroeste 0 -- -- 97
2021-02-23 04:00:00 5.6 0 Calma 3 Noroeste 0 -- -- 97
2021-02-23 03:00:00 5.5 4 Noroeste 5 Noroeste 0 -- -- 97
2021-02-23 02:00:00 5.5 0 Calma 3 Oeste 0 -- -- 97
2021-02-23 01:00:00 5.8 0 Calma 3 Oeste 0 -- -- 96
2021-02-23 00:00:00 6.9 3 Sudoeste 6 Noroeste 0 -- -- 95
2021-02-22 23:00:00 8.4 4 Noroeste 5 Noroeste 0 -- -- 95
2021-02-22 22:00:00 8.4 3 Oeste 5 Norte 0 -- -- 93
2021-02-22 21:00:00 9.9 3 Norte 3 Noroeste 0 -- -- 91
2021-02-22 20:00:00 11.2 0 Calma 4 Sur 0 -- -- 87
2021-02-22 19:00:00 12.5 5 Sur 9 Sudeste 0 -- -- 84
2021-02-22 18:00:00 14.1 7 Sur 19 Sur 0 -- -- 78
2021-02-22 17:00:00 14.6 10 Sur 18 Sudeste 0 -- -- 80
2021-02-22 16:00:00 14.5 11 Sudeste 22 Sur 0 -- -- 85
2021-02-22 15:00:00 14.1 4 Sudeste 15 Sudeste 0.2 -- -- 88
2021-02-22 14:00:00 13.2 9 Sudeste 18 Sur 0.8 -- -- 89
2021-02-22 13:00:00 14.6 12 Sur 18 Sur 0 -- -- 79
2021-02-22 12:00:00 13.8 8 Sur 16 Sudoeste 0 -- -- 85
2021-02-22 11:00:00 13.1 3 Sur 7 Oeste 0.2 -- -- 88
2021-02-22 10:00:00 12.6 3 Oeste 6 Sudoeste 0 -- -- 91
2021-02-22 09:00:00 12.8 4 Oeste 15 Sudoeste 0 -- -- 89
2021-02-22 08:00:00 13 8 Sudoeste 26 Oeste 0 -- -- 90
2021-02-22 07:00:00 13.2 17 Oeste 23 Oeste 0 -- -- 88
2021-02-22 06:00:00 13.6 12 Sudoeste 18 Sudoeste 0 -- -- 87
2021-02-22 05:00:00 13.7 9 Oeste 19 Oeste 0 -- -- 88
2021-02-22 04:00:00 14 13 Oeste 22 Oeste 0 -- -- 88
2021-02-22 03:00:00 14.3 9 Oeste 14 Oeste 0 -- -- 89
2021-02-22 02:00:00 14.5 9 Oeste 17 Sudoeste 0 -- -- 89
2021-02-22 01:00:00 15.1 10 Sudoeste 27 Oeste 0 -- -- 83
2021-02-22 00:00:00 16.3 8 Oeste 15 Sur 0 -- -- 69
2021-02-21 23:00:00 17.6 12 Este 23 Este 0 -- -- 63
2021-02-21 22:00:00 15.7 8 Nordeste 19 Nordeste 0 -- -- 74
2021-02-21 21:00:00 15.7 12 Nordeste 23 Nordeste 0 -- -- 74
2021-02-21 20:00:00 15.6 11 Nordeste 26 Nordeste 0 -- -- 74
2021-02-21 19:00:00 15.7 15 Nordeste 28 Nordeste 0 -- -- 73
2021-02-21 18:00:00 16.3 13 Nordeste 24 Nordeste 0 -- -- 70
2021-02-21 17:00:00 17.1 14 Nordeste 25 Nordeste 0 -- -- 70
2021-02-21 16:00:00 18.1 14 Nordeste 25 Nordeste 0 -- -- 69
2021-02-21 15:00:00 17.8 16 Este 28 Este 0 -- -- 72
2021-02-21 14:00:00 18.1 18 Este 29 Este 0 -- -- 71
2021-02-21 13:00:00 17.9 16 Este 30 Este 0 -- -- 73
2021-02-21 12:00:00 18.4 14 Nordeste 28 Este 0 -- -- 72
2021-02-21 11:00:00 16.8 13 Este 24 Este 0 -- -- 81
2021-02-21 10:00:00 14.2 15 Nordeste 24 Este 0 -- -- 88
2021-02-21 09:00:00 13.3 13 Nordeste 22 Nordeste 0 -- -- 90
2021-02-21 08:00:00 12.5 10 Nordeste 18 Nordeste 0 -- -- 90
2021-02-21 07:00:00 11.8 10 Nordeste 18 Nordeste 0 -- -- 90
2021-02-21 06:00:00 11.3 10 Nordeste 21 Nordeste 0 -- -- 91
2021-02-21 05:00:00 11.9 12 Nordeste 18 Nordeste 0 -- -- 91
2021-02-21 04:00:00 11.3 8 Nordeste 18 Nordeste 0 -- -- 90
2021-02-21 03:00:00 11.4 9 Nordeste 17 Nordeste 0 -- -- 90
2021-02-21 02:00:00 11.1 10 Norte 18 Nordeste 0 -- -- 90
2021-02-21 01:00:00 11.4 8 Nordeste 19 Nordeste 0 -- -- 92
2021-02-21 00:00:00 8 9 Nordeste 13 Nordeste 0 -- -- 92
2021-02-20 23:00:00 7.7 6 Norte 9 Norte 0 -- -- 93
2021-02-20 22:00:00 10 7 Nordeste 11 Nordeste 0 -- -- 94
2021-02-20 21:00:00 10 7 Nordeste 9 Nordeste 0 -- -- 91
2021-02-20 20:00:00 11 8 Nordeste 13 Nordeste 0 -- -- 87
2021-02-20 19:00:00 12.7 6 Nordeste 13 Este 0 -- -- 75
2021-02-20 18:00:00 16.9 8 Este 17 Sudeste 0 -- -- 61
2021-02-20 17:00:00 19 12 Este 19 Este 0 -- -- 46
2021-02-20 16:00:00 19.9 11 Este 19 Sudeste 0 -- -- 48
2021-02-20 15:00:00 20.4 10 Sudeste 16 Sudeste 0 -- -- 46
2021-02-20 14:00:00 20.4 5 Este 20 Sudeste 0 -- -- 44
2021-02-20 13:00:00 18.6 4 Este 12 Este 0 -- -- 54
2021-02-20 12:00:00 17.3 3 Este 9 Este 0 -- -- 69
2021-02-20 11:00:00 14.7 4 Este 8 Este 0 -- -- 92
2021-02-20 10:00:00 12.7 4 Nordeste 8 Nordeste 0 -- -- 93
2021-02-20 09:00:00 8.2 0 Calma 6 Noroeste 0 -- -- 97
2021-02-20 08:00:00 3.2 4 Noroeste 5 Noroeste 0 -- -- 98
2021-02-20 07:00:00 4.3 3 Noroeste 4 Noroeste 0 -- -- 99
2021-02-20 06:00:00 4.4 0 Calma 6 Oeste 0 -- -- 97
2021-02-20 05:00:00 6.3 6 Oeste 9 Oeste 0 -- -- 99
2021-02-20 04:00:00 6.6 6 Oeste 9 Oeste 0 -- -- 99
2021-02-20 03:00:00 8.3 7 Oeste 9 Oeste 0 -- -- 97
2021-02-20 02:00:00 9.3 6 Sudoeste 9 Sudoeste 0 -- -- 97
2021-02-20 01:00:00 9.4 3 Noroeste 9 Oeste -- -- -- 95
2021-02-20 00:00:00 8.9 2 Noroeste 6 Sur 0 -- -- 95
2021-02-19 23:00:00 9.7 7 Sudoeste 13 Sudoeste 0 -- -- 94
2021-02-19 22:00:00 10.9 6 Sudoeste 17 Sudoeste 0 -- -- 93
2021-02-19 21:00:00 10.7 6 Sudoeste 15 Sudoeste 0 -- -- 92
2021-02-19 20:00:00 10.9 8 Oeste 15 Oeste 0 -- -- 90
2021-02-19 19:00:00 11.9 10 Sudoeste 17 Sudoeste 0 -- -- 87
2021-02-19 18:00:00 14.7 10 Sudoeste 16 Sudoeste 0 -- -- 75
2021-02-19 17:00:00 17.8 7 Nordeste 19 Este 0 -- -- 69
2021-02-19 16:00:00 19.7 10 Este 18 Este 0 -- -- 63
2021-02-19 15:00:00 19.6 5 Este 14 Este 0 -- -- 59
2021-02-19 14:00:00 18.8 5 Este 13 Este 0 -- -- 58
2021-02-19 13:00:00 17.8 5 Este 13 Nordeste 0 -- -- 64
2021-02-19 12:00:00 16.6 4 Nordeste 9 Este 0 -- -- 68
2021-02-19 11:00:00 15.1 3 Nordeste 11 Este 0 -- -- 72
2021-02-19 10:00:00 12.3 4 Nordeste 7 Nordeste 0 -- -- 86
2021-02-19 09:00:00 7.9 3 Sur 8 Noroeste 0 -- -- 93
2021-02-19 08:00:00 3.8 2 Sudoeste 8 Noroeste 0 -- -- 95
2021-02-19 07:00:00 5.3 6 Noroeste 9 Noroeste 0 -- -- 95
2021-02-19 06:00:00 6.2 3 Noroeste 6 Noroeste 0 -- -- 93
2021-02-19 05:00:00 6.4 4 Oeste 9 Sudoeste 0 -- -- 94
2021-02-19 04:00:00 7 4 Sudoeste 8 Sudoeste 0 -- -- 93
2021-02-19 03:00:00 6.4 2 Noroeste 8 Norte 0 -- -- 94
2021-02-19 02:00:00 4.7 4 Noroeste 5 Noroeste 0 -- -- 94
2021-02-19 01:00:00 6.3 0 Calma 8 Oeste 0 -- -- 92
2021-02-19 00:00:00 6.8 5 Sudoeste 13 Sudoeste 0 -- -- 93
2021-02-18 23:00:00 7.6 8 Sudoeste 9 Sudoeste 0 -- -- 93
2021-02-18 22:00:00 8.5 5 Noroeste 9 Noroeste 0 -- -- 91
2021-02-18 21:00:00 9.1 6 Sudoeste 8 Sudoeste 0 -- -- 88
2021-02-18 20:00:00 11.9 2 Este 8 Sudoeste 0 -- -- 83
2021-02-18 19:00:00 13.7 6 Sudoeste 11 Sudeste 0 -- -- 76
2021-02-18 18:00:00 16.9 9 Sur 18 Sur 0 -- -- 67
2021-02-18 17:00:00 19.4 8 Oeste 15 Sudoeste 0 -- -- 56
2021-02-18 16:00:00 20.5 9 Sur 16 Sur 0 -- -- 46
2021-02-18 15:00:00 20.5 10 Sudeste 18 Sudeste 0 -- -- 47
2021-02-18 14:00:00 20.2 5 Nordeste 15 Nordeste 0 -- -- 56
2021-02-18 13:00:00 18.5 6 Nordeste 16 Este 0 -- -- 61
2021-02-18 12:00:00 17.4 6 Este 15 Este 0 -- -- 66
2021-02-18 11:00:00 14.9 4 Sudeste 10 Este 0 -- -- 78
2021-02-18 10:00:00 12.5 4 Sudeste 8 Sudeste 0 -- -- 92
2021-02-18 09:00:00 9.5 8 Noroeste 12 Noroeste 0 -- -- 96
2021-02-18 08:00:00 8.8 6 Norte 10 Noroeste 0 -- -- 97
2021-02-18 07:00:00 8.8 2 Norte 8 Norte 0 -- -- 97
2021-02-18 06:00:00 9.1 2 Norte 8 Noroeste 0 -- -- 97
2021-02-18 05:00:00 9.4 6 Norte 8 Norte 0 -- -- 97
2021-02-18 04:00:00 10.1 3 Sudoeste 11 Sudoeste 0 -- -- 97
2021-02-18 03:00:00 10.3 8 Sudoeste 14 Sudoeste 0 -- -- 97
2021-02-18 02:00:00 10.2 8 Sudoeste 13 Sudoeste 0 -- -- 97
2021-02-18 01:00:00 7.6 8 Sudoeste 10 Sudoeste 0 -- -- 97
2021-02-18 00:00:00 6.1 5 Sur 6 Sur 0 -- -- 96
2021-02-17 23:00:00 8.4 4 Oeste 8 Oeste 0 -- -- 95
2021-02-17 22:00:00 8.5 6 Oeste 9 Oeste 0 -- -- 94
2021-02-17 21:00:00 8.6 5 Oeste 7 Oeste 0 -- -- 93
2021-02-17 20:00:00 10 4 Oeste 7 Oeste 0 -- -- 89
2021-02-17 19:00:00 11.9 4 Oeste 10 Sudoeste 0 -- -- 84
2021-02-17 18:00:00 14.6 4 Sudoeste 13 Sur 0 -- -- 73
2021-02-17 17:00:00 16.5 8 Sudoeste 13 Sudoeste 0 -- -- 69
2021-02-17 16:00:00 17.7 5 Sur 14 Oeste 0 -- -- 63
2021-02-17 15:00:00 16.9 9 Sudoeste 18 Sudoeste 0 -- -- 66
2021-02-17 14:00:00 16.4 10 Oeste 29 Oeste 0 -- -- 65
2021-02-17 13:00:00 15.6 12 Oeste 18 Oeste 0 -- -- 68
2021-02-17 12:00:00 15 7 Sur 13 Sur 0 -- -- 71
2021-02-17 11:00:00 12.9 5 Sudoeste 10 Oeste 0 -- -- 81
2021-02-17 10:00:00 11.4 2 Sur 5 Noroeste 0 -- -- 93
2021-02-17 09:00:00 6.9 4 Noroeste 8 Noroeste 0 -- -- 97
2021-02-17 08:00:00 1.8 0 Calma 3 Sudoeste 0 -- -- 97
2021-02-17 07:00:00 1.8 3 Sudoeste 6 Noroeste 0 -- -- 98
2021-02-17 06:00:00 2.1 4 Oeste 6 Noroeste 0 -- -- 97
2021-02-17 05:00:00 2.1 5 Noroeste 7 Noroeste 0 -- -- 96
2021-02-17 04:00:00 3.1 3 Oeste 5 Noroeste 0 -- -- 96
2021-02-17 03:00:00 4.7 2 Noroeste 4 Oeste 0 -- -- 95
2021-02-17 02:00:00 6.8 3 Este 12 Nordeste 0 -- -- 94
2021-02-17 01:00:00 6.4 2 Sudeste 13 Sudoeste 0 -- -- 93
2021-02-17 00:00:00 7 10 Sudoeste 13 Sudoeste 0 -- -- 93
2021-02-16 23:00:00 6.7 9 Sudoeste 11 Sudoeste 0 -- -- 93
2021-02-16 22:00:00 6.7 8 Sudoeste 10 Sudoeste 0 -- -- 92
2021-02-16 21:00:00 6.4 6 Sudoeste 8 Sudoeste 0 -- -- 89
2021-02-16 20:00:00 8.5 6 Sudoeste 14 Sudoeste 0 -- -- 85
2021-02-16 19:00:00 9.8 11 Sudoeste 21 Sudoeste 0 -- -- 79
2021-02-16 18:00:00 11.9 15 Sudoeste 26 Sudoeste 0 -- -- 72
2021-02-16 17:00:00 13.3 15 Sudoeste 27 Sudoeste 0 -- -- 67
2021-02-16 16:00:00 13.7 16 Sudoeste 25 Sudoeste 0 -- -- 65
2021-02-16 15:00:00 14 16 Sudoeste 27 Sudoeste 0 -- -- 64
2021-02-16 14:00:00 14.4 13 Sudoeste 26 Sudoeste 0 -- -- 64
2021-02-16 13:00:00 13.2 15 Sudoeste 24 Sudoeste 0 -- -- 65
2021-02-16 12:00:00 12.8 13 Oeste 25 Oeste 0 -- -- 68
2021-02-16 11:00:00 12.7 13 Sudoeste 22 Sur 0 -- -- 70
2021-02-16 10:00:00 10.9 3 Sudoeste 5 Sudoeste 0 -- -- 89
2021-02-16 09:00:00 6 0 Calma 4 Sudoeste 0 -- -- 94
2021-02-16 08:00:00 1.3 3 Sudoeste 4 Sudoeste 0 -- -- 95
2021-02-16 07:00:00 1.5 2 Oeste 5 Sudoeste 0 -- -- 94
2021-02-16 06:00:00 2.1 3 Sudoeste 4 Oeste 0 -- -- 94
2021-02-16 05:00:00 3 0 Calma 4 Sudoeste 0 -- -- 93
2021-02-16 04:00:00 3.6 4 Sudoeste 5 Sudoeste 0 -- -- 91
2021-02-16 03:00:00 5.2 0 Calma 5 Noroeste 0 -- -- 88
2021-02-16 02:00:00 6.7 2 Oeste 5 Noroeste 0 -- -- 86
2021-02-16 01:00:00 7.3 4 Noroeste 7 Noroeste 0 -- -- 86
2021-02-16 00:00:00 7.6 5 Noroeste 6 Noroeste 0 -- -- 84
2021-02-15 23:00:00 8.2 5 Noroeste 6 Noroeste 0 -- -- 79
2021-02-15 22:00:00 8.7 2 Sur 6 Sur 0 -- -- 74
2021-02-15 21:00:00 8.9 3 Sur 5 Sur 0 -- -- 76
2021-02-15 20:00:00 9.3 3 Sur 5 Sur 0 -- -- 75
2021-02-15 19:00:00 9.7 2 Sudoeste 9 Sur 0 -- -- 73
2021-02-15 18:00:00 10 6 Sur 16 Sudeste 0 -- -- 69
2021-02-15 17:00:00 10.7 10 Sudeste 16 Sudeste 0 -- -- 67
2021-02-15 16:00:00 11.5 5 Sudeste 10 Sudeste 0 -- -- 64
2021-02-15 15:00:00 11.7 3 Este 10 Este 0 -- -- 64
2021-02-15 14:00:00 11.3 5 Sur 13 Este 0 -- -- 65
2021-02-15 13:00:00 11.6 2 Sudeste 10 Sudeste 0 -- -- 65
2021-02-15 12:00:00 11 2 Este 11 Este 0 -- -- 68
2021-02-15 11:00:00 10.2 3 Este 8 Este 0 -- -- 69
2021-02-15 10:00:00 9.9 5 Este 8 Este 0 -- -- 75
2021-02-15 09:00:00 7.8 3 Noroeste 4 Noroeste 0 -- -- 89
2021-02-15 08:00:00 5.9 0 Calma 2 Norte 0 -- -- 88
2021-02-15 07:00:00 5.7 0 Calma 4 Sudeste 0 -- -- 86
2021-02-15 06:00:00 6.5 4 Noroeste 9 Norte 0 -- -- 81
2021-02-15 05:00:00 5.8 6 Norte 10 Noroeste 0 -- -- 83
2021-02-15 04:00:00 5.1 9 Norte 10 Norte 0 -- -- 85
2021-02-15 03:00:00 5.6 5 Norte 8 Norte 0 -- -- 85
2021-02-15 02:00:00 6.5 2 Nordeste 5 Nordeste 0 -- -- 83
2021-02-15 01:00:00 6.8 4 Nordeste 5 Nordeste 0 -- -- 83
2021-02-15 00:00:00 7.2 0 Calma 6 Nordeste 0 -- -- 81
2021-02-14 23:00:00 7.5 4 Este 9 Este 0 -- -- 78
2021-02-14 22:00:00 8 4 Nordeste 12 Nordeste 0 -- -- 76
2021-02-14 21:00:00 8.3 4 Nordeste 8 Nordeste 0 -- -- 76
2021-02-14 20:00:00 8.4 4 Nordeste 14 Este 0 -- -- 75
2021-02-14 19:00:00 8.9 9 Este 17 Este 0 -- -- 73
2021-02-14 18:00:00 9.5 10 Nordeste 22 Nordeste 0 -- -- 70
2021-02-14 17:00:00 10 10 Nordeste 22 Nordeste 0 -- -- 68
2021-02-14 16:00:00 10.3 13 Este 24 Nordeste 0 -- -- 69
2021-02-14 15:00:00 10.4 14 Nordeste 24 Nordeste 0 -- -- 72
2021-02-14 14:00:00 11.5 15 Nordeste 25 Nordeste 0 -- -- 70
2021-02-14 13:00:00 10.8 13 Nordeste 25 Nordeste 0 -- -- 72
2021-02-14 12:00:00 10.8 16 Nordeste 28 Nordeste 0 -- -- 76
2021-02-14 11:00:00 11.1 10 Nordeste 21 Nordeste 0 -- -- 78
2021-02-14 10:00:00 11.2 12 Nordeste 19 Nordeste 0 -- -- 81
2021-02-14 09:00:00 10.2 12 Nordeste 21 Nordeste 0 -- -- 89
2021-02-14 08:00:00 9.7 9 Nordeste 14 Nordeste 0 -- -- 93
2021-02-14 07:00:00 10 7 Norte 15 Nordeste 0 -- -- 94
2021-02-14 06:00:00 10.5 8 Nordeste 16 Nordeste 0.2 -- -- 94
2021-02-14 05:00:00 10.5 5 Norte 12 Nordeste 0 -- -- 93
2021-02-14 04:00:00 10.7 6 Nordeste 9 Nordeste 0 -- -- 93
2021-02-14 03:00:00 10.7 0 Calma 6 Este 0 -- -- 93
2021-02-14 02:00:00 10.9 4 Este 10 Nordeste 0 -- -- 92
2021-02-14 01:00:00 10.5 0 Calma 5 Nordeste 0 -- -- 92
2021-02-14 00:00:00 11 3 Nordeste 7 Nordeste 0 -- -- 91
2021-02-13 23:00:00 11.3 4 Norte 8 Norte 0 -- -- 91
2021-02-13 22:00:00 11.4 3 Norte 6 Norte 0 -- -- 91
2021-02-13 21:00:00 11.2 4 Nordeste 8 Norte 0 -- -- 91
2021-02-13 20:00:00 10.5 5 Este 9 Oeste 0 -- -- 89
2021-02-13 19:00:00 12 5 Sudoeste 17 Sudoeste 0 -- -- 85
2021-02-13 18:00:00 13.2 10 Sudoeste 25 Sudoeste 0 -- -- 82
2021-02-13 17:00:00 15.2 13 Sudoeste 21 Sudoeste 0 -- -- 73
2021-02-13 16:00:00 16.5 6 Nordeste 11 Nordeste 0 -- -- 70
2021-02-13 15:00:00 15.8 5 Nordeste 12 Sur 0 -- -- 71
2021-02-13 14:00:00 16.6 6 Sudoeste 10 Sudeste 0 -- -- 68
2021-02-13 13:00:00 15 6 Nordeste 14 Sudeste 0 -- -- 75
2021-02-13 08:00:00 -- -- -- -- -- -- -- -- --
2021-02-13 07:00:00 8.4 4 Sudoeste 15 Sudoeste 0 -- -- 97
2021-02-13 06:00:00 8.3 3 Nordeste 10 Este 0 -- -- 97
2021-02-13 05:00:00 8.7 5 Este 10 Sudeste 0 -- -- 97
2021-02-13 04:00:00 8.4 6 Sur 12 Sudoeste 0 -- -- 95
2021-02-13 03:00:00 8.7 6 Noroeste 9 Oeste 0 -- -- 95
2021-02-13 02:00:00 10.2 0 Calma 9 Sur 0 -- -- 94
2021-02-13 01:00:00 11.3 6 Sur 13 Sudeste 0.2 -- -- 93
2021-02-13 00:00:00 11.6 10 Este 26 Oeste 0.8 -- -- 88
2021-02-12 23:00:00 12.1 12 Oeste 20 Oeste 1.2 -- -- 90
2021-02-12 22:00:00 12.4 15 Oeste 36 Oeste 0.2 -- -- 83
2021-02-12 21:00:00 14.3 21 Noroeste 37 Oeste 0 -- -- 69
2021-02-12 20:00:00 14.9 23 Noroeste 43 Noroeste 0 -- -- 64
2021-02-12 19:00:00 14.8 14 Noroeste 35 Oeste 0 -- -- 63
2021-02-12 18:00:00 15.3 18 Noroeste 34 Noroeste 0 -- -- 65
2021-02-12 17:00:00 16.3 15 Noroeste 48 Oeste 0 -- -- 67
2021-02-12 16:00:00 16.2 18 Sudoeste 29 Sudoeste 0 -- -- 83
2021-02-12 15:00:00 15.7 17 Sudoeste 31 Sudoeste 0 -- -- 87
2021-02-12 14:00:00 14.8 19 Sudoeste 32 Sudoeste 0 -- -- 89
2021-02-12 13:00:00 15.2 21 Sudoeste 30 Sudoeste 0 -- -- 89
2021-02-12 12:00:00 14.8 21 Sudoeste 31 Sudoeste 0 -- -- 92
2021-02-12 11:00:00 14 18 Sudoeste 27 Sudoeste 0 -- -- 96
2021-02-12 10:00:00 13.3 15 Sudoeste 24 Sudoeste 0 -- -- 96
2021-02-12 09:00:00 13.1 11 Sudoeste 20 Oeste 0 -- -- 96
2021-02-12 08:00:00 12.6 10 Sudoeste 17 Sudoeste 0 -- -- 97
2021-02-12 07:00:00 12.1 11 Sudoeste 18 Sudoeste 0 -- -- 97
2021-02-12 06:00:00 11.7 4 Oeste 13 Sudoeste 0 -- -- 96
2021-02-12 05:00:00 11.3 9 Sudoeste 14 Sudoeste 0 -- -- 96
2021-02-12 04:00:00 10.3 4 Oeste 15 Oeste 0 -- -- 95
2021-02-12 03:00:00 7.6 8 Oeste 11 Oeste 0 -- -- 96
2021-02-12 02:00:00 7.5 4 Sudoeste 8 Oeste 0 -- -- 95
2021-02-12 01:00:00 8.6 3 Sur 10 Oeste 0 -- -- 93
2021-02-12 00:00:00 10.4 12 Oeste 14 Oeste 0 -- -- 94
2021-02-11 23:00:00 9.6 4 Sudoeste 14 Oeste 0 -- -- 92
2021-02-11 22:00:00 10.4 8 Oeste 15 Oeste 0 -- -- 91
2021-02-11 21:00:00 11 6 Oeste 13 Oeste 0 -- -- 87
2021-02-11 20:00:00 11.8 6 Oeste 17 Oeste 0 -- -- 84
2021-02-11 19:00:00 12.1 6 Oeste 14 Oeste 0 -- -- 76
2021-02-11 18:00:00 13.9 10 Sudoeste 21 Sur 0 -- -- 72
2021-02-11 17:00:00 16.6 17 Sudoeste 28 Sudoeste 0 -- -- 59
2021-02-11 16:00:00 17.6 21 Sudoeste 26 Sudoeste 0 -- -- 54
2021-02-11 15:00:00 17.9 18 Sudoeste 27 Sur 0 -- -- 54
2021-02-11 14:00:00 18.3 15 Sur 24 Sur 0 -- -- 52
2021-02-11 13:00:00 17.9 14 Sudoeste 27 Sudoeste 0 -- -- 55
2021-02-11 12:00:00 16.4 19 Sudoeste 27 Sudoeste 0 -- -- 61
2021-02-11 11:00:00 15.5 14 Sudoeste 22 Sudoeste 0 -- -- 66
2021-02-11 10:00:00 12.9 6 Sudoeste 10 Sudoeste 0 -- -- 70
2021-02-11 09:00:00 9.1 5 Oeste 7 Oeste 0 -- -- 85
2021-02-11 08:00:00 3.7 5 Oeste 9 Sur 0 -- -- 86
2021-02-11 07:00:00 5.6 9 Sudoeste 13 Oeste 0 -- -- 88
2021-02-11 06:00:00 4.1 3 Sudoeste 11 Sudeste 0 -- -- 89
2021-02-11 05:00:00 4.1 0 Calma 8 Sudeste 0 -- -- 88
2021-02-11 04:00:00 4.1 2 Sudoeste 13 Sudeste 0 -- -- 85
2021-02-11 03:00:00 6.6 3 Sur 11 Sudoeste 0 -- -- 76
2021-02-11 02:00:00 8.6 7 Oeste 15 Sudoeste 0 -- -- 70
2021-02-11 01:00:00 9.6 10 Sudoeste 20 Sur 0 -- -- 64
2021-02-11 00:00:00 9.8 7 Sudoeste 18 Sur 0 -- -- 68
2021-02-10 23:00:00 10.4 5 Sudoeste 27 Oeste 0 -- -- 69
2021-02-10 22:00:00 11.2 8 Oeste 31 Noroeste 0 -- -- 63
2021-02-10 21:00:00 12.6 9 Noroeste 25 Oeste 0 -- -- 55
2021-02-10 20:00:00 12.2 6 Noroeste 23 Sur 0 -- -- 58
2021-02-10 19:00:00 12.4 11 Sur 26 Sudeste 0 -- -- 58
2021-02-10 18:00:00 12.8 23 Noroeste 61 Noroeste 0 -- -- 58
2021-02-10 17:00:00 13.5 38 Noroeste 73 Oeste 0 -- -- 55
2021-02-10 16:00:00 14.5 39 Noroeste 60 Noroeste -- -- -- 50
2021-02-10 15:00:00 14.8 35 Noroeste 62 Noroeste 0 -- -- 48
2021-02-10 14:00:00 14.4 27 Noroeste 49 Noroeste 0 -- -- 54
2021-02-10 13:00:00 14.4 33 Oeste 61 Noroeste 0 -- -- 57
2021-02-10 12:00:00 15 43 Oeste 67 Oeste 0.2 -- -- 53
2021-02-10 11:00:00 14.1 41 Oeste 62 Oeste 0 -- -- 61
2021-02-10 10:00:00 14.8 28 Sudoeste 59 Sudoeste 0 -- -- 69
2021-02-10 09:00:00 -- -- -- -- -- -- -- -- --
2021-02-10 08:00:00 -- -- -- -- -- -- -- -- --
2021-02-10 07:00:00 -- -- -- -- -- -- -- -- --
2021-02-10 06:00:00 -- -- -- -- -- -- -- -- --
2021-02-10 05:00:00 14.1 27 Sudoeste 55 Sudoeste 0 -- -- 65
2021-02-10 04:00:00 13.6 23 Sudoeste 35 Sudoeste 0 -- -- 77
2021-02-10 03:00:00 13.5 22 Sudoeste 38 Sudoeste 0 -- -- 79
2021-02-10 02:00:00 -- -- -- -- -- -- -- -- --
2021-02-10 01:00:00 13.1 25 Sudoeste 35 Sudoeste 0 -- -- 88
2021-02-10 00:00:00 13.4 22 Sudoeste 47 Sudoeste 0 -- -- 90
2021-02-09 23:00:00 13.7 30 Sudoeste 46 Sudoeste 0 -- -- 89
2021-02-09 22:00:00 13.4 26 Sudoeste 41 Sudoeste 0.2 -- -- 90
2021-02-09 21:00:00 13 22 Sudoeste 33 Sudoeste 0.2 -- -- 89
2021-02-09 20:00:00 12.3 18 Sudoeste 34 Oeste 0.4 -- -- 87
2021-02-09 19:00:00 12.8 23 Sudoeste 44 Sudoeste 0 -- -- 84
2021-02-09 18:00:00 13.2 23 Sudoeste 42 Sudoeste 0 -- -- 85
2021-02-09 17:00:00 13.6 22 Sudoeste 40 Sudoeste 0 -- -- 73
2021-02-09 16:00:00 14.1 23 Sudoeste 41 Sudoeste 0 -- -- 69
2021-02-09 15:00:00 14.5 24 Sudoeste 39 Sudoeste 0 -- -- 64
2021-02-09 14:00:00 16.1 13 Oeste 45 Oeste 0 -- -- 53
2021-02-09 13:00:00 15.8 37 Sudoeste 57 Oeste 0 -- -- 53
2021-02-09 12:00:00 14.7 24 Oeste 36 Sudoeste 0 -- -- 57
2021-02-09 11:00:00 13.8 16 Sudoeste 24 Sudoeste 0 -- -- 65
2021-02-09 10:00:00 13 14 Sudoeste 20 Sudoeste 0 -- -- 66
2021-02-09 09:00:00 12.3 15 Sudoeste 23 Oeste 0 -- -- 69
2021-02-09 08:00:00 10.4 12 Sudoeste 31 Oeste 0 -- -- 75
2021-02-09 07:00:00 11.4 18 Oeste 33 Oeste 0 -- -- 74
2021-02-09 06:00:00 11.6 22 Sudoeste 34 Oeste 0 -- -- 73
2021-02-09 05:00:00 11.9 23 Oeste 32 Oeste 0 -- -- 71
2021-02-09 04:00:00 11.4 14 Sudoeste 27 Sudoeste 0 -- -- 69
2021-02-09 03:00:00 12 19 Sudoeste 31 Oeste 0 -- -- 70
2021-02-09 02:00:00 12.6 19 Oeste 46 Sudoeste 0 -- -- 65
2021-02-09 01:00:00 13.1 23 Oeste 43 Oeste 0 -- -- 65
2021-02-09 00:00:00 12.6 15 Oeste 29 Oeste 0 -- -- 68
2021-02-08 23:00:00 12.9 17 Oeste 30 Oeste 0 -- -- 67
2021-02-08 22:00:00 12.7 16 Sudoeste 39 Sudoeste 0 -- -- 66
2021-02-08 21:00:00 12.9 19 Oeste 37 Oeste 0 -- -- 62
2021-02-08 20:00:00 12.8 18 Sudoeste 35 Oeste 0 -- -- 65
2021-02-08 19:00:00 13.4 19 Oeste 41 Oeste 0 -- -- 63
2021-02-08 18:00:00 14.3 28 Oeste 50 Oeste 0 -- -- 62
2021-02-08 17:00:00 14.2 23 Oeste 40 Oeste 0 -- -- 65
2021-02-08 16:00:00 14.6 30 Oeste 56 Sudoeste 0 -- -- 69
2021-02-08 15:00:00 13.6 29 Sudoeste 45 Sudoeste 0.2 -- -- 90
2021-02-08 14:00:00 12.4 26 Sudoeste 43 Sudoeste 0.6 -- -- 89
2021-02-08 13:00:00 12.1 29 Sudoeste 57 Oeste 0.4 -- -- 83
2021-02-08 12:00:00 14.4 28 Sudoeste 48 Sudoeste 0 -- -- 68
2021-02-08 11:00:00 14.4 27 Sudoeste 47 Sudoeste 0 -- -- 66
2021-02-08 10:00:00 13.2 22 Sudoeste 34 Sudoeste 0 -- -- 71
2021-02-08 09:00:00 11.8 19 Sudoeste 32 Sudoeste 0 -- -- 75
2021-02-08 08:00:00 10.8 19 Sudoeste 34 Sudoeste 0 -- -- 80
2021-02-08 07:00:00 10.7 20 Sudoeste 37 Sudoeste 0 -- -- 80
2021-02-08 06:00:00 10.6 19 Sudoeste 27 Sudoeste 0 -- -- 81
2021-02-08 05:00:00 9.3 15 Sudoeste 24 Sudoeste 0 -- -- 82
2021-02-08 04:00:00 8.7 10 Sudoeste 17 Oeste 0 -- -- 88
2021-02-08 03:00:00 5.8 4 Sur 9 Sudoeste 0 -- -- 85
2021-02-08 02:00:00 4.8 8 Sudoeste 10 Sudoeste 0 -- -- 84
2021-02-08 01:00:00 6.3 8 Oeste 13 Sudoeste 0 -- -- 79
2021-02-08 00:00:00 6 8 Sudoeste 11 Sudoeste 0 -- -- 82
2021-02-07 23:00:00 6.2 4 Sudoeste 10 Sudoeste 0 -- -- 81
2021-02-07 22:00:00 5.9 4 Oeste 9 Oeste 0 -- -- 81
2021-02-07 21:00:00 6.7 3 Oeste 10 Oeste 0 -- -- 76
2021-02-07 20:00:00 8.3 7 Oeste 14 Oeste 0 -- -- 70
2021-02-07 19:00:00 9.4 11 Sudoeste 18 Sudoeste 0 -- -- 66
2021-02-07 18:00:00 11.5 12 Oeste 24 Sudoeste 0 -- -- 54
2021-02-07 17:00:00 13 16 Sudoeste 28 Oeste 0 -- -- 48
2021-02-07 16:00:00 13.8 13 Oeste 25 Noroeste 0 -- -- 47
2021-02-07 15:00:00 14.1 14 Noroeste 29 Oeste 0 -- -- 51
2021-02-07 14:00:00 12.8 13 Noroeste 30 Oeste 0 -- -- 56
2021-02-07 13:00:00 12.7 15 Noroeste 30 Noroeste 0 -- -- 53
2021-02-07 12:00:00 12.7 21 Noroeste 38 Noroeste 0 -- -- 58
2021-02-07 11:00:00 13.3 14 Noroeste 24 Noroeste 0 -- -- 60
2021-02-07 10:00:00 13.3 11 Noroeste 22 Noroeste 0 -- -- 68
2021-02-07 09:00:00 11.2 7 Noroeste 16 Oeste 0 -- -- 76
2021-02-07 08:00:00 10.3 10 Oeste 22 Oeste 0 -- -- 83
2021-02-07 07:00:00 9.3 9 Oeste 19 Sudoeste 0 -- -- 93
2021-02-07 06:00:00 10.6 12 Oeste 24 Oeste 0 -- -- 94
2021-02-07 05:00:00 10.7 9 Sudoeste 12 Sudoeste 0 -- -- 95
2021-02-07 04:00:00 11.1 6 Sudoeste 15 Sudoeste 0 -- -- 95
2021-02-07 03:00:00 11 8 Sudoeste 13 Sudoeste 0 -- -- 94
2021-02-07 02:00:00 11.4 7 Oeste 13 Sudoeste 0 -- -- 94
2021-02-07 01:00:00 11.7 10 Sudoeste 16 Oeste 0 -- -- 93
2021-02-07 00:00:00 12.3 7 Oeste 10 Oeste 0 -- -- 93
2021-02-06 23:00:00 11.9 3 Oeste 27 Sudoeste 0 -- -- 92
2021-02-06 22:00:00 12.1 14 Sur 27 Sur 0 -- -- 94
2021-02-06 21:00:00 11.2 9 Sudoeste 15 Sudoeste 0 -- -- 92
2021-02-06 20:00:00 12.4 12 Oeste 22 Sudoeste 0 -- -- 91
2021-02-06 19:00:00 12.9 13 Sudoeste 23 Sudoeste 0 -- -- 89
2021-02-06 18:00:00 14.1 18 Sudoeste 28 Sudoeste 0 -- -- 83
2021-02-06 17:00:00 15.2 21 Sudoeste 33 Sudoeste 0 -- -- 79
2021-02-06 16:00:00 16.1 22 Sudoeste 33 Sudoeste 0 -- -- 76
2021-02-06 15:00:00 16.6 19 Sudoeste 30 Sudoeste 0 -- -- 76
2021-02-06 14:00:00 16.5 20 Sudoeste 32 Sudoeste 0 -- -- 75
2021-02-06 13:00:00 16.2 21 Sudoeste 31 Sudoeste 0 -- -- 77
2021-02-06 12:00:00 15.8 20 Sudoeste 30 Sudoeste 0 -- -- 80
2021-02-06 11:00:00 15.5 17 Oeste 25 Sudoeste 0 -- -- 85
2021-02-06 10:00:00 14.8 16 Sudoeste 23 Sudoeste 0 -- -- 88
2021-02-06 09:00:00 14.5 14 Sudoeste 21 Oeste 0 -- -- 89
2021-02-06 08:00:00 14.6 10 Oeste 14 Oeste 0 -- -- 81
2021-02-06 07:00:00 15.5 7 Oeste 15 Noroeste 0 -- -- 70
2021-02-06 06:00:00 16.7 9 Oeste 30 Sudoeste 0 -- -- 61
2021-02-06 05:00:00 19 17 Sudoeste 36 Sudoeste 0 -- -- 45
2021-02-06 04:00:00 20.6 16 Sudoeste 26 Sudoeste 0 -- -- 35
2021-02-06 03:00:00 20.9 10 Sudoeste 29 Oeste 0 -- -- 34
2021-02-06 02:00:00 21.4 17 Sudoeste 33 Sudoeste 0 -- -- 36
2021-02-06 01:00:00 16.6 3 Sur 12 Noroeste 0 -- -- 60
2021-02-06 00:00:00 16.7 8 Sudoeste 16 Norte 0 -- -- 59
2021-02-05 23:00:00 14.3 4 Nordeste 12 Nordeste 0 -- -- 66
2021-02-05 22:00:00 15.4 6 Nordeste 21 Sudeste 0 -- -- 61
2021-02-05 21:00:00 14.5 6 Nordeste 18 Norte 0 -- -- 66
2021-02-05 20:00:00 14.7 6 Este 18 Nordeste 0 -- -- 62
2021-02-05 19:00:00 15.6 7 Norte 11 Norte 0 -- -- 59
2021-02-05 18:00:00 18.6 5 Este 13 Sudeste 0 -- -- 48
2021-02-05 17:00:00 20.4 3 Sudoeste 17 Sur 0 -- -- 41
2021-02-05 16:00:00 22.2 13 Sudoeste 25 Sur 0 -- -- 35
2021-02-05 15:00:00 23.3 12 Sur 24 Sudoeste 0 -- -- 34
2021-02-05 14:00:00 22.4 17 Sudoeste 25 Sudoeste 0 -- -- 37
2021-02-05 13:00:00 21.8 12 Sudoeste 22 Sur 0 -- -- 46
2021-02-05 12:00:00 20.4 9 Sudoeste 15 Sudoeste 0 -- -- 54
2021-02-05 11:00:00 18.6 0 Calma 4 Noroeste 0 -- -- 64
2021-02-05 10:00:00 13.2 3 Sudoeste 5 Sudoeste 0 -- -- 88
2021-02-05 09:00:00 9.6 0 Calma 5 Sudoeste 0 -- -- 93
2021-02-05 08:00:00 7.6 6 Noroeste 8 Noroeste 0 -- -- 94
2021-02-05 07:00:00 8.2 6 Norte 11 Sudeste 0 -- -- 92
2021-02-05 06:00:00 8.3 3 Sur 6 Nordeste 0 -- -- 91
2021-02-05 05:00:00 8.5 2 Este 14 Sur 0 -- -- 90
2021-02-05 04:00:00 8 9 Noroeste 14 Sur 0 -- -- 91
2021-02-05 03:00:00 7.4 2 Este 9 Noroeste 0 -- -- 90
2021-02-05 02:00:00 7.1 2 Oeste 8 Sur 0 -- -- 90
2021-02-05 01:00:00 7.9 4 Noroeste 7 Norte 0 -- -- 88
2021-02-05 00:00:00 8.7 5 Noroeste 7 Noroeste 0 -- -- 88
2021-02-04 23:00:00 8.9 5 Noroeste 6 Noroeste 0 -- -- 90
2021-02-04 22:00:00 9.4 4 Sur 5 Sur 0 -- -- 89
2021-02-04 21:00:00 10.2 3 Sudoeste 8 Oeste 0 -- -- 86
2021-02-04 20:00:00 11.3 4 Sudoeste 8 Sudoeste 0 -- -- 86
2021-02-04 19:00:00 12.8 6 Sudoeste 11 Sudoeste 0 -- -- 78
2021-02-04 18:00:00 16 7 Sudoeste 17 Sudoeste 0 -- -- 67
2021-02-04 17:00:00 19.5 11 Oeste 17 Oeste 0 -- -- 51
2021-02-04 16:00:00 19.7 9 Sudoeste 13 Sudoeste 0 -- -- 54
2021-02-04 15:00:00 19.7 8 Oeste 13 Oeste 0 -- -- 52
2021-02-04 14:00:00 18.6 8 Sudoeste 17 Sudoeste 0 -- -- 62
2021-02-04 13:00:00 16.6 10 Sudoeste 15 Sudoeste 0 -- -- 75
2021-02-04 12:00:00 14.6 7 Sur 12 Sur 0 -- -- 95
2021-02-04 11:00:00 11.5 5 Sudoeste 9 Sudoeste 0 -- -- 99
2021-02-04 10:00:00 10.3 7 Oeste 13 Sudoeste 0 -- -- 98
2021-02-04 09:00:00 9.7 8 Sudoeste 11 Sudoeste 0 -- -- 98
2021-02-04 08:00:00 9.8 4 Oeste 6 Sudoeste 0 -- -- 98
2021-02-04 07:00:00 10.4 3 Noroeste 7 Noroeste 0 -- -- 98
2021-02-04 06:00:00 10.8 6 Sur 10 Oeste 0 -- -- 98
2021-02-04 05:00:00 11.1 5 Sudoeste 13 Sudoeste 0 -- -- 98
2021-02-04 04:00:00 10.8 3 Sudoeste 6 Sudoeste 0 -- -- 98
2021-02-04 03:00:00 10.2 0 Calma 5 Sudoeste 0 -- -- 97
2021-02-04 02:00:00 9.7 2 Norte 6 Sudoeste 0 -- -- 97
2021-02-04 01:00:00 9.9 0 Calma 5 Sudoeste 0 -- -- 97
2021-02-04 00:00:00 10.5 5 Sudoeste 10 Sudoeste 0 -- -- 96
2021-02-03 23:00:00 10.7 5 Oeste 14 Oeste 0 -- -- 95
2021-02-03 22:00:00 11.9 7 Oeste 17 Oeste 0 -- -- 94
2021-02-03 21:00:00 12.3 13 Oeste 21 Oeste 0 -- -- 94
2021-02-03 20:00:00 12.7 11 Oeste 23 Sudoeste 0 -- -- 93
2021-02-03 19:00:00 12.7 12 Oeste 29 Sudoeste 0 -- -- 92
2021-02-03 18:00:00 13.2 10 Oeste 30 Sudoeste 0 -- -- 86
2021-02-03 17:00:00 15.7 19 Sudoeste 31 Sudoeste 0 -- -- 74
2021-02-03 16:00:00 16.8 25 Sudoeste 34 Sudoeste 0 -- -- 68
2021-02-03 15:00:00 17.5 20 Sudoeste 31 Sudoeste 0 -- -- 67
2021-02-03 14:00:00 16.4 22 Sudoeste 36 Oeste 0 -- -- 72
2021-02-03 13:00:00 17.8 24 Sudoeste 35 Sudoeste 0 -- -- 70
2021-02-03 12:00:00 16.5 24 Sudoeste 37 Sudoeste 0 -- -- 74
2021-02-03 11:00:00 14.1 23 Sudoeste 33 Sudoeste 0 -- -- 90
2021-02-03 10:00:00 13.2 19 Sudoeste 29 Sudoeste 0 -- -- 94
2021-02-03 09:00:00 12.5 16 Sudoeste 27 Oeste 0 -- -- 95
2021-02-03 08:00:00 11.6 14 Sudoeste 21 Sudoeste 0 -- -- 95
2021-02-03 07:00:00 11 10 Sudoeste 24 Sudoeste 0 -- -- 95
2021-02-03 06:00:00 11.6 11 Sudoeste 18 Sudoeste 0 -- -- 94
2021-02-03 05:00:00 12 15 Sudoeste 29 Sudoeste 0 -- -- 94
2021-02-03 04:00:00 11.8 14 Sudoeste 24 Sudoeste 0 -- -- 95
2021-02-03 03:00:00 10.6 12 Oeste 17 Sudoeste 0 -- -- 95
2021-02-03 02:00:00 10.4 11 Oeste 16 Sudoeste 0 -- -- 95
2021-02-03 01:00:00 9.9 13 Sudoeste 16 Sudoeste 0 -- -- 94
2021-02-03 00:00:00 9.1 7 Sudoeste 10 Sudoeste 0 -- -- 94